Terminal Aerodrome Forecast
Issued by NWS Bismarck, ND

Home | Current Version | Previous Version | Text Only | Print | Product List | Glossary Off
Versions: 1 2 3 4 5 6 7 8 9 10 11 12 13 14 15 16 17 18

000
FTUS43 KBIS 180526
TAFISN
TAF
KISN 180526Z 1806/1906 21010KT P6SM FEW250 WS020/28040KT
     FM181300 20008KT P6SM SCT200 WS020/29035KT
     FM181800 23010KT P6SM SCT200=

USA.gov is the U.S. government's official web portal to all federal, state and local government web resources and services.